createdAt,value
2019-02-16T00:00:35.423Z,62.24
2019-02-16T00:01:35.415Z,62.24
2019-02-16T00:02:35.408Z,62.13
2019-02-16T00:03:35.407Z,62.65
2019-02-16T00:04:35.378Z,62.75
2019-02-16T00:05:35.405Z,62.13
2019-02-16T00:06:35.409Z,62.24
2019-02-16T00:07:35.357Z,62.85
2019-02-16T00:08:35.340Z,62.85
2019-02-16T00:09:35.336Z,62.44
2019-02-16T00:10:35.318Z,62.34
2019-02-16T00:11:35.315Z,63.27
2019-02-16T00:12:35.297Z,62.75
2019-02-16T00:13:35.295Z,62.96
2019-02-16T00:14:35.433Z,62.75
2019-02-16T00:15:35.262Z,63.19
2019-02-16T00:16:35.259Z,63.27
2019-02-16T00:17:35.241Z,63.17
2019-02-16T00:18:35.227Z,63.09
2019-02-16T00:19:35.216Z,63.40
2019-02-16T00:20:35.220Z,63.60
2019-02-16T00:21:35.204Z,63.81
2019-02-16T00:22:35.185Z,63.71
2019-02-16T00:23:35.177Z,63.29
2019-02-16T00:24:35.165Z,63.50
2019-02-16T00:25:35.175Z,63.92
2019-02-16T00:26:35.155Z,63.71
2019-02-16T00:27:35.133Z,63.40
2019-02-16T00:28:35.123Z,64.25
2019-02-16T00:29:35.106Z,64.25
2019-02-16T00:30:35.096Z,64.25
2019-02-16T00:31:35.136Z,63.95
2019-02-16T00:32:35.078Z,64.25
2019-02-16T00:33:35.068Z,64.36
2019-02-16T00:34:35.057Z,64.15
2019-02-16T00:35:35.044Z,64.04
2019-02-16T00:36:35.036Z,64.90
2019-02-16T00:37:35.054Z,64.87
2019-02-16T00:38:35.157Z,65.00
2019-02-16T00:39:35.000Z,64.46
2019-02-16T00:40:34.987Z,64.80
2019-02-16T00:41:34.981Z,65.00
2019-02-16T00:42:35.000Z,65.00
2019-02-16T00:43:34.965Z,64.59
2019-02-16T00:44:34.943Z,65.21
2019-02-16T00:45:34.945Z,65.42
2019-02-16T00:46:34.926Z,66.04
2019-02-16T00:47:34.964Z,66.04
2019-02-16T00:48:34.914Z,65.76
2019-02-16T00:49:34.892Z,65.86
2019-02-16T00:50:34.949Z,66.58
2019-02-16T00:51:34.872Z,66.07
2019-02-16T00:52:34.858Z,65.97
2019-02-16T00:53:34.883Z,67.00
2019-02-16T00:54:34.834Z,67.00
2019-02-16T00:55:34.829Z,66.79
2019-02-16T00:56:34.812Z,66.48
2019-02-16T00:57:34.800Z,66.51
2019-02-16T00:58:34.862Z,66.82
2019-02-16T00:59:34.781Z,66.82
2019-02-16T01:00:34.767Z,67.13
2019-02-16T01:01:34.777Z,67.54
2019-02-16T01:02:34.748Z,66.93
2019-02-16T01:03:34.739Z,67.54
2019-02-16T01:04:34.749Z,67.54
2019-02-16T01:05:34.919Z,67.34
2019-02-16T01:06:34.705Z,67.34
2019-02-16T01:07:34.696Z,67.44
2019-02-16T01:08:34.678Z,67.44
2019-02-16T01:09:34.707Z,67.54
2019-02-16T01:10:34.658Z,67.34
2019-02-16T01:11:34.652Z,67.75
2019-02-16T01:12:34.635Z,67.75
2019-02-16T01:13:34.630Z,68.09
2019-02-16T01:14:34.650Z,67.96
2019-02-16T01:15:34.608Z,68.30
2019-02-16T01:16:34.592Z,67.65
2019-02-16T01:17:34.579Z,67.47
2019-02-16T01:18:34.578Z,67.68
2019-02-16T01:19:34.556Z,67.88
2019-02-16T01:20:34.554Z,67.78
2019-02-16T01:21:34.536Z,68.09
2019-02-16T01:22:34.528Z,67.78
2019-02-16T01:23:34.522Z,67.99
2019-02-16T01:24:34.502Z,67.68
2019-02-16T01:25:34.523Z,67.78
2019-02-16T01:26:34.552Z,67.99
2019-02-16T01:27:34.474Z,68.19
2019-02-16T01:28:34.463Z,67.99
2019-02-16T01:29:34.464Z,68.09
2019-02-16T01:30:34.488Z,68.19
2019-02-16T01:31:34.430Z,68.19
2019-02-16T01:32:34.417Z,68.54
2019-02-16T01:33:34.405Z,68.51
2019-02-16T01:34:34.398Z,68.40
2019-02-16T01:35:34.381Z,68.40
2019-02-16T01:36:34.397Z,68.92
2019-02-16T01:37:34.358Z,69.06
2019-02-16T01:38:34.347Z,69.02
2019-02-16T01:39:34.335Z,68.85
2019-02-16T01:40:34.329Z,68.61
2019-02-16T01:41:34.353Z,68.64
2019-02-16T01:42:34.308Z,68.71
2019-02-16T01:43:34.297Z,69.02
2019-02-16T01:44:34.281Z,68.82
2019-02-16T01:45:34.275Z,68.95
2019-02-16T01:46:34.263Z,68.71
2019-02-16T01:47:34.285Z,68.61
2019-02-16T01:48:34.236Z,68.71
2019-02-16T01:49:34.227Z,69.57
2019-02-16T01:50:34.218Z,68.95
2019-02-16T01:51:34.345Z,69.37
2019-02-16T01:52:34.232Z,69.37
2019-02-16T01:53:34.185Z,69.88
2019-02-16T01:54:34.240Z,69.78
2019-02-16T01:55:34.163Z,69.88
2019-02-16T01:56:34.147Z,69.67
2019-02-16T01:57:34.137Z,69.67
2019-02-16T01:58:34.164Z,69.57
2019-02-16T01:59:34.115Z,69.88
2019-02-16T02:00:34.102Z,69.57
2019-02-16T02:01:34.096Z,70.19
2019-02-16T02:02:34.085Z,70.09
2019-02-16T02:03:34.110Z,70.09
2019-02-16T02:04:34.065Z,69.98
2019-02-16T02:05:34.087Z,69.88
2019-02-16T02:06:34.039Z,70.09
2019-02-16T02:07:34.031Z,70.19
2019-02-16T02:08:34.022Z,69.88
2019-02-16T02:09:34.017Z,70.12
2019-02-16T02:10:34.033Z,70.09
2019-02-16T02:11:33.985Z,70.09
2019-02-16T02:12:33.982Z,70.09
2019-02-16T02:13:33.962Z,70.71
2019-02-16T02:14:33.954Z,70.71
2019-02-16T02:15:33.955Z,70.81
2019-02-16T02:16:33.932Z,70.40
2019-02-16T02:17:33.968Z,70.19
2019-02-16T02:18:33.913Z,70.19
2019-02-16T02:19:33.951Z,70.40
2019-02-16T02:20:33.890Z,70.29
2019-02-16T02:21:40.967Z,70.71
2019-02-16T02:22:34.863Z,70.40
2019-02-16T02:23:33.856Z,70.22
2019-02-16T02:24:33.854Z,70.19
2019-02-16T02:25:33.828Z,70.12
2019-02-16T02:26:33.853Z,70.19
2019-02-16T02:27:33.812Z,70.32
2019-02-16T02:28:33.793Z,70.22
2019-02-16T02:29:33.796Z,70.09
2019-02-16T02:30:33.780Z,70.22
2019-02-16T02:31:33.761Z,70.12
2019-02-16T02:32:33.756Z,69.92
2019-02-16T02:33:33.742Z,69.92
2019-02-16T02:34:33.766Z,69.88
2019-02-16T02:35:33.717Z,69.81
2019-02-16T02:36:33.750Z,69.92
2019-02-16T02:37:33.697Z,70.01
2019-02-16T02:38:33.689Z,69.92
2019-02-16T02:39:33.688Z,70.12
2019-02-16T02:40:33.672Z,70.22
2019-02-16T02:41:33.662Z,69.92
2019-02-16T02:42:33.638Z,70.12
2019-02-16T02:43:33.667Z,69.71
2019-02-16T02:44:33.620Z,70.53
2019-02-16T02:45:33.645Z,71.05
2019-02-16T02:46:33.598Z,71.05
2019-02-16T02:47:33.590Z,71.15
2019-02-16T02:48:33.578Z,70.84
2019-02-16T02:49:33.562Z,70.53
2019-02-16T02:50:33.578Z,70.43
2019-02-16T02:51:33.550Z,70.84
2019-02-16T02:52:33.529Z,70.74
2019-02-16T02:53:33.524Z,70.84
2019-02-16T02:54:33.511Z,70.95
2019-02-16T02:55:33.549Z,71.29
2019-02-16T02:56:33.490Z,71.15
2019-02-16T02:57:33.477Z,70.95
2019-02-16T02:58:33.465Z,70.36
2019-02-16T02:59:33.457Z,70.74
2019-02-16T03:00:33.461Z,70.77
2019-02-16T03:01:33.459Z,70.77
2019-02-16T03:02:33.447Z,70.98
2019-02-16T03:03:33.446Z,71.60
2019-02-16T03:04:33.417Z,71.29
2019-02-16T03:05:33.392Z,70.98
2019-02-16T03:06:33.380Z,71.29
2019-02-16T03:07:33.370Z,71.39
2019-02-16T03:08:33.384Z,71.60
2019-02-16T03:09:33.352Z,71.08
2019-02-16T03:10:33.341Z,71.19
2019-02-16T03:11:33.324Z,71.29
2019-02-16T03:12:33.474Z,71.29
2019-02-16T03:13:33.310Z,71.43
2019-02-16T03:14:33.295Z,71.60
2019-02-16T03:15:33.279Z,71.19
2019-02-16T03:16:33.281Z,71.12
2019-02-16T03:17:33.261Z,71.22
2019-02-16T03:18:33.267Z,71.22
2019-02-16T03:19:33.236Z,71.43
2019-02-16T03:20:33.228Z,70.81
2019-02-16T03:21:33.210Z,70.70
2019-02-16T03:22:33.203Z,70.70
2019-02-16T03:23:33.205Z,70.91
2019-02-16T03:24:33.182Z,70.81
2019-02-16T03:25:33.166Z,71.33
2019-02-16T03:26:33.157Z,71.12
2019-02-16T03:27:33.185Z,70.70
2019-02-16T03:28:33.134Z,70.73
2019-02-16T03:29:33.126Z,70.81
2019-02-16T03:30:33.122Z,71.43
2019-02-16T03:31:33.106Z,71.43
2019-02-16T03:32:33.096Z,71.46
2019-02-16T03:33:33.209Z,71.56
2019-02-16T03:34:33.072Z,71.25
2019-02-16T03:35:33.106Z,71.25
2019-02-16T03:36:33.055Z,71.25
2019-02-16T03:37:33.042Z,71.22
2019-02-16T03:38:33.031Z,71.36
2019-02-16T03:39:33.013Z,71.36
2019-02-16T03:40:33.009Z,71.56
2019-02-16T03:41:33.017Z,71.25
2019-02-16T03:42:32.986Z,71.46
2019-02-16T03:43:32.973Z,71.56
2019-02-16T03:44:32.963Z,71.46
2019-02-16T03:45:32.984Z,71.15
2019-02-16T03:46:32.941Z,71.46
2019-02-16T03:47:32.929Z,71.56
2019-02-16T03:48:32.915Z,71.56
2019-02-16T03:49:32.942Z,71.67
2019-02-16T03:50:32.918Z,71.25
2019-02-16T03:51:32.890Z,71.36
2019-02-16T03:52:32.878Z,70.94
2019-02-16T03:53:32.864Z,71.46
2019-02-16T03:54:32.864Z,70.84
2019-02-16T03:55:32.845Z,71.36
2019-02-16T03:56:32.834Z,71.46
2019-02-16T03:57:32.822Z,71.67
2019-02-16T03:58:32.812Z,71.36
2019-02-16T03:59:32.839Z,71.36
2019-02-16T04:00:32.793Z,71.36
2019-02-16T04:01:32.782Z,71.46
2019-02-16T04:02:32.768Z,71.46
2019-02-16T04:03:32.753Z,71.36
2019-02-16T04:04:32.747Z,71.25
2019-02-16T04:05:32.742Z,71.39
2019-02-16T04:06:32.761Z,71.25
2019-02-16T04:07:32.711Z,71.39
2019-02-16T04:08:32.703Z,72.08
2019-02-16T04:09:32.697Z,71.36
2019-02-16T04:10:32.681Z,71.56
2019-02-16T04:11:32.749Z,71.67
2019-02-16T04:12:32.660Z,71.36
2019-02-16T04:13:32.650Z,71.56
2019-02-16T04:14:32.633Z,71.25
2019-02-16T04:15:32.628Z,71.56
2019-02-16T04:16:32.620Z,71.91
2019-02-16T04:17:32.641Z,72.11
2019-02-16T04:18:32.591Z,72.11
2019-02-16T04:19:32.584Z,71.39
2019-02-16T04:20:32.576Z,71.70
2019-02-16T04:21:32.557Z,72.11
2019-02-16T04:22:32.585Z,72.11
2019-02-16T04:23:32.541Z,72.22
2019-02-16T04:24:32.532Z,72.01
2019-02-16T04:25:32.515Z,71.80
2019-02-16T04:26:32.502Z,72.01
2019-02-16T04:27:32.568Z,71.80
2019-02-16T04:28:32.481Z,72.74
2019-02-16T04:29:32.477Z,72.84
2019-02-16T04:30:32.465Z,72.01
2019-02-16T04:31:32.454Z,72.11
2019-02-16T04:32:32.447Z,71.91
2019-02-16T04:33:32.472Z,72.11
2019-02-16T04:34:32.423Z,71.80
2019-02-16T04:35:32.417Z,71.94
2019-02-16T04:36:32.400Z,72.11
2019-02-16T04:37:32.398Z,72.32
2019-02-16T04:38:32.378Z,72.46
2019-02-16T04:39:32.390Z,72.15
2019-02-16T04:40:32.354Z,72.05
2019-02-16T04:41:32.510Z,72.15
2019-02-16T04:42:32.331Z,72.32
2019-02-16T04:43:32.336Z,72.15
2019-02-16T04:44:32.361Z,72.25
2019-02-16T04:45:32.306Z,72.05
2019-02-16T04:46:32.296Z,72.15
2019-02-16T04:47:32.278Z,72.46
2019-02-16T04:48:32.269Z,72.11
2019-02-16T04:49:32.293Z,72.15
2019-02-16T04:50:32.271Z,72.15
2019-02-16T04:51:32.240Z,72.56
2019-02-16T04:52:35.125Z,72.25
2019-02-16T04:53:32.211Z,71.84
2019-02-16T04:54:32.251Z,72.67
2019-02-16T04:55:32.196Z,72.77
2019-02-16T04:56:32.180Z,72.67
2019-02-16T04:57:32.175Z,71.97
2019-02-16T04:58:32.164Z,72.05
2019-02-16T04:59:32.212Z,72.15
2019-02-16T05:00:32.174Z,72.15
2019-02-16T05:01:32.130Z,71.94
2019-02-16T05:02:32.120Z,71.42
2019-02-16T05:03:32.104Z,71.53
2019-02-16T05:04:32.100Z,71.42
2019-02-16T05:05:32.121Z,71.42
2019-02-16T05:06:32.106Z,72.05
2019-02-16T05:07:32.066Z,72.05
2019-02-16T05:08:32.146Z,72.08
2019-02-16T05:09:32.048Z,72.28
2019-02-16T05:10:32.044Z,72.39
2019-02-16T05:11:32.792Z,72.15
2019-02-16T05:12:32.012Z,72.08
2019-02-16T05:13:32.022Z,72.28
2019-02-16T05:14:31.991Z,72.18
2019-02-16T05:15:31.978Z,72.28
2019-02-16T05:16:32.055Z,72.18
2019-02-16T05:17:31.957Z,72.08
2019-02-16T05:18:31.942Z,72.28
2019-02-16T05:19:31.931Z,72.28
2019-02-16T05:20:31.931Z,72.60
2019-02-16T05:21:31.911Z,72.80
2019-02-16T05:22:31.926Z,72.60
2019-02-16T05:23:31.888Z,72.60
2019-02-16T05:24:31.880Z,72.70
2019-02-16T05:25:31.868Z,72.80
2019-02-16T05:26:31.862Z,73.01
2019-02-16T05:27:31.893Z,73.11
2019-02-16T05:28:31.840Z,73.25
2019-02-16T05:29:31.825Z,72.74
2019-02-16T05:30:32.787Z,72.84
2019-02-16T05:31:31.806Z,72.49
2019-02-16T05:32:31.833Z,72.63
2019-02-16T05:33:31.787Z,72.60
2019-02-16T05:34:31.778Z,73.05
2019-02-16T05:35:31.762Z,73.36
2019-02-16T05:36:31.748Z,73.25
2019-02-16T05:37:31.774Z,73.46
2019-02-16T05:38:31.732Z,73.46
2019-02-16T05:39:31.725Z,73.46
2019-02-16T05:40:31.703Z,73.25
2019-02-16T05:41:31.699Z,73.46
2019-02-16T05:42:31.688Z,73.25
2019-02-16T05:43:31.677Z,73.05
2019-02-16T05:44:31.712Z,73.15
2019-02-16T05:45:31.654Z,73.57
2019-02-16T05:46:31.646Z,73.05
2019-02-16T05:47:31.636Z,73.36
2019-02-16T05:48:31.634Z,73.25
2019-02-16T05:49:31.606Z,73.57
2019-02-16T05:50:31.598Z,73.57
2019-02-16T05:51:31.587Z,73.36
2019-02-16T05:52:31.582Z,73.15
2019-02-16T05:53:31.567Z,72.94
2019-02-16T05:54:31.591Z,72.74
2019-02-16T05:55:31.543Z,73.15
2019-02-16T05:56:31.536Z,73.15
2019-02-16T05:57:31.522Z,72.53
2019-02-16T05:58:31.509Z,72.94
2019-02-16T05:59:31.556Z,73.18
2019-02-16T06:00:31.487Z,72.84
2019-02-16T06:01:31.478Z,73.60
2019-02-16T06:02:31.473Z,73.18
2019-02-16T06:03:31.454Z,72.97
2019-02-16T06:04:31.446Z,72.97
2019-02-16T06:05:31.512Z,73.49
2019-02-16T06:06:31.423Z,73.49
2019-02-16T06:07:31.417Z,73.28
2019-02-16T06:08:31.403Z,72.97
2019-02-16T06:09:31.389Z,73.28
2019-02-16T06:10:31.388Z,72.97
2019-02-16T06:11:31.394Z,72.97
2019-02-16T06:12:31.393Z,73.08
2019-02-16T06:13:31.346Z,73.18
2019-02-16T06:14:31.339Z,72.97
2019-02-16T06:15:31.324Z,73.25
2019-02-16T06:16:31.350Z,72.97
2019-02-16T06:17:31.339Z,73.28
2019-02-16T06:18:31.291Z,73.18
2019-02-16T06:19:31.285Z,73.18
2019-02-16T06:20:31.267Z,72.97
2019-02-16T06:21:31.260Z,73.25
2019-02-16T06:22:31.252Z,72.56
2019-02-16T06:23:31.312Z,73.15
2019-02-16T06:24:31.231Z,72.87
2019-02-16T06:25:31.219Z,73.08
2019-02-16T06:26:31.211Z,72.56
2019-02-16T06:27:31.193Z,72.66
2019-02-16T06:28:31.187Z,72.87
2019-02-16T06:29:31.208Z,72.87
2019-02-16T06:30:31.161Z,72.87
2019-02-16T06:31:31.150Z,73.08
2019-02-16T06:32:31.137Z,72.42
2019-02-16T06:33:31.127Z,72.84
2019-02-16T06:34:32.459Z,72.66
2019-02-16T06:35:31.127Z,72.35
2019-02-16T06:36:31.099Z,72.45
2019-02-16T06:37:31.082Z,72.56
2019-02-16T06:38:31.072Z,72.66
2019-02-16T06:39:31.063Z,72.56
2019-02-16T06:40:31.130Z,72.66
2019-02-16T06:41:31.045Z,72.45
2019-02-16T06:42:31.034Z,72.87
2019-02-16T06:43:31.024Z,72.87
2019-02-16T06:44:31.011Z,72.87
2019-02-16T06:45:31.002Z,73.08
2019-02-16T06:46:31.009Z,72.87
2019-02-16T06:47:30.975Z,72.77
2019-02-16T06:48:30.961Z,72.66
2019-02-16T06:49:30.956Z,72.87
2019-02-16T06:50:36.777Z,72.87
2019-02-16T06:51:31.934Z,72.56
2019-02-16T06:52:30.923Z,72.77
2019-02-16T06:53:30.916Z,72.32
2019-02-16T06:54:30.897Z,72.11
2019-02-16T06:55:30.958Z,72.25
2019-02-16T06:56:30.876Z,71.94
2019-02-16T06:57:30.872Z,72.35
2019-02-16T06:58:30.857Z,72.25
2019-02-16T06:59:30.848Z,72.56
2019-02-16T07:00:30.838Z,72.53
2019-02-16T07:01:30.860Z,72.11
2019-02-16T07:02:30.883Z,71.49
2019-02-16T07:03:30.804Z,71.59
2019-02-16T07:04:30.789Z,71.49
2019-02-16T07:05:30.778Z,71.59
2019-02-16T07:06:30.788Z,70.97
2019-02-16T07:07:30.763Z,71.70
2019-02-16T07:08:30.785Z,71.39
2019-02-16T07:09:30.738Z,70.97
2019-02-16T07:10:30.730Z,71.28
2019-02-16T07:11:30.718Z,71.70
2019-02-16T07:12:30.702Z,71.49
2019-02-16T07:13:30.765Z,71.49
2019-02-16T07:14:31.938Z,71.28
2019-02-16T07:15:30.674Z,71.49
2019-02-16T07:16:30.661Z,71.56
2019-02-16T07:17:30.652Z,71.49
2019-02-16T07:18:30.637Z,71.49
2019-02-16T07:19:30.652Z,71.39
2019-02-16T07:20:30.621Z,71.49
2019-02-16T07:21:30.607Z,71.49
2019-02-16T07:22:30.597Z,71.39
2019-02-16T07:23:30.592Z,71.70
2019-02-16T07:24:30.609Z,70.76
2019-02-16T07:25:30.566Z,70.52
2019-02-16T07:26:30.562Z,70.94
2019-02-16T07:27:30.586Z,71.25
2019-02-16T07:28:30.536Z,70.73
2019-02-16T07:29:30.528Z,71.35
2019-02-16T07:30:30.506Z,70.73
2019-02-16T07:31:30.504Z,70.62
2019-02-16T07:32:30.518Z,70.31
2019-02-16T07:33:30.492Z,70.42
2019-02-16T07:34:30.472Z,71.04
2019-02-16T07:35:30.457Z,70.42
2019-02-16T07:36:30.446Z,70.31
2019-02-16T07:37:30.440Z,69.79
2019-02-16T07:38:30.431Z,69.97
2019-02-16T07:39:30.415Z,69.24
2019-02-16T07:40:30.404Z,69.14
2019-02-16T07:41:30.395Z,68.93
2019-02-16T07:42:30.419Z,68.83
2019-02-16T07:43:30.369Z,69.24
2019-02-16T07:44:30.362Z,68.90
2019-02-16T07:45:30.352Z,68.90
2019-02-16T07:46:30.336Z,67.97
2019-02-16T07:47:30.360Z,67.86
2019-02-16T07:48:30.315Z,67.97
2019-02-16T07:49:30.307Z,67.55
2019-02-16T07:50:30.296Z,67.45
2019-02-16T07:51:30.282Z,67.42
2019-02-16T07:52:30.318Z,66.80
2019-02-16T07:53:31.561Z,67.11
2019-02-16T07:54:30.288Z,67.11
2019-02-16T07:55:30.238Z,66.59
2019-02-16T07:56:30.228Z,66.90
2019-02-16T07:57:30.222Z,66.69
2019-02-16T07:58:30.210Z,66.05
2019-02-16T07:59:30.200Z,66.25
2019-02-16T08:00:30.211Z,66.35
2019-02-16T08:01:30.174Z,66.25
2019-02-16T08:02:30.170Z,66.66
2019-02-16T08:03:30.162Z,67.21
2019-02-16T08:04:30.144Z,66.46
2019-02-16T08:05:30.169Z,66.35
2019-02-16T08:06:30.117Z,65.94
2019-02-16T08:07:30.116Z,66.97
2019-02-16T08:08:30.133Z,66.77
2019-02-16T08:09:30.095Z,66.77
2019-02-16T08:10:30.079Z,66.87
2019-02-16T08:11:30.065Z,66.15
2019-02-16T08:12:30.052Z,66.35
2019-02-16T08:13:30.101Z,66.94
2019-02-16T08:14:30.038Z,66.22
2019-02-16T08:15:30.028Z,66.53
2019-02-16T08:16:30.020Z,66.02
2019-02-16T08:17:30.010Z,65.70
2019-02-16T08:18:29.986Z,65.50
2019-02-16T08:19:29.980Z,65.29
2019-02-16T08:20:29.980Z,64.98
2019-02-16T08:21:29.953Z,64.95
2019-02-16T08:22:29.947Z,65.26
2019-02-16T08:23:29.932Z,64.64
2019-02-16T08:24:29.920Z,64.64
2019-02-16T08:25:29.918Z,64.12
2019-02-16T08:26:29.906Z,63.57
2019-02-16T08:27:29.903Z,63.47
2019-02-16T08:28:29.883Z,63.37
2019-02-16T08:29:29.868Z,63.37
2019-02-16T08:30:29.859Z,63.37
2019-02-16T08:31:29.850Z,63.89
2019-02-16T08:32:29.878Z,63.85
2019-02-16T08:33:29.830Z,63.44
2019-02-16T08:34:29.815Z,62.62
2019-02-16T08:35:29.799Z,62.62
2019-02-16T08:36:31.414Z,62.82
2019-02-16T08:37:29.778Z,62.93
2019-02-16T08:38:29.786Z,62.41
2019-02-16T08:39:29.754Z,62.20
2019-02-16T08:40:29.749Z,62.48
2019-02-16T08:41:29.734Z,62.07
2019-02-16T08:42:29.722Z,62.17
2019-02-16T08:43:29.725Z,62.17
2019-02-16T08:44:29.709Z,61.94
2019-02-16T08:45:29.689Z,61.87
2019-02-16T08:46:29.678Z,61.11
2019-02-16T08:47:29.677Z,60.91
2019-02-16T08:48:29.668Z,60.18
2019-02-16T08:49:29.650Z,60.16
2019-02-16T08:50:29.663Z,60.05
2019-02-16T08:51:29.629Z,60.23
2019-02-16T08:52:29.613Z,59.82
2019-02-16T08:53:29.603Z,59.17
2019-02-16T08:54:29.608Z,58.22
2019-02-16T08:55:29.585Z,58.29
2019-02-16T08:56:29.570Z,56.62
2019-02-16T08:57:29.580Z,56.08
2019-02-16T08:58:29.610Z,55.54
2019-02-16T08:59:29.585Z,54.28
2019-02-16T09:00:29.543Z,53.64
2019-02-16T09:01:29.517Z,53.20
2019-02-16T09:02:29.512Z,52.66
2019-02-16T09:03:29.492Z,51.84
2019-02-16T09:04:29.487Z,51.53
2019-02-16T09:05:29.487Z,51.41
2019-02-16T09:06:29.465Z,50.46
2019-02-16T09:07:29.464Z,50.13
2019-02-16T09:08:29.443Z,50.44
2019-02-16T09:09:29.427Z,48.77
2019-02-16T09:10:29.433Z,49.29
2019-02-16T09:11:29.415Z,49.26
2019-02-16T09:12:29.397Z,48.34
2019-02-16T09:13:29.394Z,47.81
2019-02-16T09:14:29.389Z,47.91
2019-02-16T09:15:29.360Z,46.45
2019-02-16T09:16:29.360Z,46.64
2019-02-16T09:17:29.340Z,45.59
2019-02-16T09:18:29.334Z,45.18
2019-02-16T09:19:29.317Z,45.06
2019-02-16T09:20:29.310Z,44.12
2019-02-16T09:21:29.315Z,44.53
2019-02-16T09:22:29.310Z,44.81
2019-02-16T09:23:29.281Z,43.59
2019-02-16T09:24:29.275Z,43.79
2019-02-16T09:25:29.249Z,43.57
2019-02-16T09:26:29.265Z,42.35
2019-02-16T09:27:29.245Z,42.65
2019-02-16T09:28:29.817Z,42.63
2019-02-16T09:29:29.211Z,42.53
2019-02-16T09:30:29.197Z,42.21
2019-02-16T09:31:29.189Z,42.30
2019-02-16T09:32:29.190Z,41.49
2019-02-16T09:33:29.204Z,40.86
2019-02-16T09:34:29.211Z,40.55
2019-02-16T09:35:29.146Z,39.82
2019-02-16T09:36:29.129Z,40.23
2019-02-16T09:37:29.135Z,40.21
2019-02-16T09:38:29.116Z,39.80
2019-02-16T09:39:29.107Z,39.60
2019-02-16T09:40:29.093Z,39.58
2019-02-16T09:41:29.084Z,39.38
2019-02-16T09:42:29.100Z,39.07
2019-02-16T09:43:29.067Z,38.56
2019-02-16T09:44:29.051Z,38.54
2019-02-16T09:45:29.039Z,38.34
2019-02-16T09:46:29.148Z,37.43
2019-02-16T09:47:29.029Z,37.63
2019-02-16T09:48:29.046Z,37.41
2019-02-16T09:49:28.991Z,37.59
2019-02-16T09:50:28.978Z,37.70
2019-02-16T09:51:28.971Z,37.08
2019-02-16T09:52:28.962Z,36.88
2019-02-16T09:53:28.946Z,36.99
2019-02-16T09:54:28.953Z,36.99
2019-02-16T09:55:28.934Z,36.99
2019-02-16T09:56:28.911Z,36.47
2019-02-16T09:57:28.904Z,36.58
2019-02-16T09:58:28.888Z,36.56
2019-02-16T09:59:28.897Z,35.64
2019-02-16T10:00:28.872Z,35.73
2019-02-16T10:01:28.862Z,35.02
2019-02-16T10:02:28.846Z,35.42
2019-02-16T10:03:28.838Z,34.80
2019-02-16T10:04:28.841Z,34.80
2019-02-16T10:05:28.827Z,34.80
2019-02-16T10:06:28.802Z,34.80
2019-02-16T10:07:30.452Z,35.00
2019-02-16T10:08:28.784Z,35.21
2019-02-16T10:09:28.781Z,34.48
2019-02-16T10:10:28.773Z,34.78
2019-02-16T10:11:28.748Z,34.67
2019-02-16T10:12:28.741Z,34.87
2019-02-16T10:13:28.731Z,33.74
2019-02-16T10:14:28.720Z,33.54
2019-02-16T10:15:28.735Z,33.74
2019-02-16T10:16:28.697Z,33.64
2019-02-16T10:17:28.684Z,33.94
2019-02-16T10:18:28.675Z,34.13
2019-02-16T10:19:28.686Z,33.42
2019-02-16T10:20:28.656Z,33.32
2019-02-16T10:21:28.673Z,33.20
2019-02-16T10:22:28.631Z,33.49
2019-02-16T10:23:28.637Z,32.58
2019-02-16T10:24:28.603Z,33.58
2019-02-16T10:25:28.617Z,32.56
2019-02-16T10:26:28.604Z,31.05
2019-02-16T10:27:28.574Z,31.94
2019-02-16T10:28:28.568Z,31.64
2019-02-16T10:29:28.551Z,31.62
2019-02-16T10:30:28.544Z,31.30
2019-02-16T10:31:28.533Z,31.42
2019-02-16T10:32:28.526Z,31.32
2019-02-16T10:33:28.517Z,31.20
2019-02-16T10:34:28.494Z,30.68
2019-02-16T10:35:28.489Z,30.98
2019-02-16T10:36:29.386Z,30.38
2019-02-16T10:37:28.478Z,30.36
2019-02-16T10:38:28.458Z,30.67
2019-02-16T10:39:28.441Z,29.96
2019-02-16T10:40:28.432Z,30.35
2019-02-16T10:41:28.429Z,29.64
2019-02-16T10:42:28.425Z,29.74
2019-02-16T10:43:28.398Z,29.13
2019-02-16T10:44:28.391Z,29.72
2019-02-16T10:45:28.377Z,28.81
2019-02-16T10:46:28.368Z,28.80
2019-02-16T10:47:28.364Z,28.28
2019-02-16T10:48:28.344Z,28.07
2019-02-16T10:49:28.362Z,27.47
2019-02-16T10:50:28.327Z,27.95
2019-02-16T10:51:28.311Z,27.14
2019-02-16T10:52:28.300Z,26.73
2019-02-16T10:53:28.299Z,26.62
2019-02-16T10:54:29.727Z,26.42
2019-02-16T10:55:28.304Z,26.32
2019-02-16T10:56:28.260Z,26.91
2019-02-16T10:57:28.263Z,26.09
2019-02-16T10:58:28.233Z,26.39
2019-02-16T10:59:28.228Z,25.97
2019-02-16T11:00:28.212Z,25.26
2019-02-16T11:01:28.247Z,24.55
2019-02-16T11:02:28.195Z,24.35
2019-02-16T11:03:28.184Z,24.34
2019-02-16T11:04:37.633Z,24.95
2019-02-16T11:05:29.212Z,24.14
2019-02-16T11:06:28.147Z,23.94
2019-02-16T11:07:28.159Z,23.45
2019-02-16T11:08:28.126Z,23.94
2019-02-16T11:09:28.120Z,23.44
2019-02-16T11:10:28.108Z,23.24
2019-02-16T11:11:28.108Z,23.73
2019-02-16T11:12:28.087Z,23.34
2019-02-16T11:13:28.072Z,23.23
2019-02-16T11:14:28.070Z,23.04
2019-02-16T11:15:28.054Z,23.44
2019-02-16T11:16:28.100Z,22.74
2019-02-16T11:17:28.037Z,23.25
2019-02-16T11:18:28.038Z,22.15
2019-02-16T11:19:28.013Z,22.86
2019-02-16T11:20:28.006Z,22.45
2019-02-16T11:21:27.991Z,23.15
2019-02-16T11:22:28.020Z,23.05
2019-02-16T11:23:27.964Z,23.44
2019-02-16T11:24:35.827Z,23.53
2019-02-16T11:25:28.940Z,23.82
2019-02-16T11:26:27.930Z,23.00
2019-02-16T11:27:27.920Z,22.71
2019-02-16T11:28:27.956Z,22.71
2019-02-16T11:29:27.908Z,22.53
2019-02-16T11:30:27.894Z,21.83
2019-02-16T11:31:27.882Z,21.92
2019-02-16T11:32:27.865Z,21.81
2019-02-16T11:33:27.860Z,22.13
2019-02-16T11:34:27.854Z,22.74
2019-02-16T11:35:27.838Z,22.53
2019-02-16T11:36:27.855Z,21.81
2019-02-16T11:37:27.811Z,22.13
2019-02-16T11:38:27.799Z,22.13
2019-02-16T11:39:27.811Z,21.72
2019-02-16T11:40:27.778Z,22.00
2019-02-16T11:41:27.785Z,21.70
2019-02-16T11:42:27.756Z,21.70
2019-02-16T11:43:27.748Z,22.50
2019-02-16T11:44:27.757Z,22.50
2019-02-16T11:45:27.729Z,22.08
2019-02-16T11:46:27.723Z,22.39
2019-02-16T11:47:27.706Z,21.89
2019-02-16T11:48:27.833Z,21.78
2019-02-16T11:49:27.684Z,20.98
2019-02-16T11:50:27.675Z,22.09
2019-02-16T11:51:27.668Z,21.81
2019-02-16T11:52:27.648Z,21.20
2019-02-16T11:53:27.655Z,21.11
2019-02-16T11:54:27.628Z,20.81
2019-02-16T11:55:27.626Z,20.70
2019-02-16T11:56:27.605Z,21.11
2019-02-16T11:57:27.631Z,21.41
2019-02-16T11:58:27.590Z,21.01
2019-02-16T11:59:27.574Z,21.30
2019-02-16T12:00:27.582Z,21.59
2019-02-16T12:01:27.578Z,21.20
2019-02-16T12:02:27.551Z,21.31
2019-02-16T12:03:27.535Z,21.39
2019-02-16T12:04:27.527Z,20.98
2019-02-16T12:05:27.510Z,21.17
2019-02-16T12:06:27.503Z,21.17
2019-02-16T12:07:27.559Z,20.89
2019-02-16T12:08:27.476Z,20.59
2019-02-16T12:09:27.517Z,21.48
2019-02-16T12:10:27.493Z,20.70
2019-02-16T12:11:27.456Z,21.00
2019-02-16T12:12:27.461Z,20.89
2019-02-16T12:13:27.427Z,21.80
2019-02-16T12:14:27.417Z,21.81
2019-02-16T12:15:27.425Z,22.52
2019-02-16T12:16:27.397Z,21.81
2019-02-16T12:17:27.384Z,21.81
2019-02-16T12:18:27.372Z,21.92
2019-02-16T12:19:27.375Z,21.91
2019-02-16T12:20:33.399Z,22.31
2019-02-16T12:21:28.347Z,21.09
2019-02-16T12:22:27.324Z,20.90
2019-02-16T12:23:27.315Z,21.31
2019-02-16T12:24:27.314Z,21.09
2019-02-16T12:25:27.308Z,21.31
2019-02-16T12:26:27.280Z,21.33
2019-02-16T12:27:27.274Z,21.42
2019-02-16T12:28:27.263Z,22.04
2019-02-16T12:29:27.254Z,21.84
2019-02-16T12:30:27.258Z,22.65
2019-02-16T12:31:27.229Z,22.64
2019-02-16T12:32:27.214Z,22.75
2019-02-16T12:33:27.202Z,21.64
2019-02-16T12:34:27.193Z,22.04
2019-02-16T12:35:27.281Z,22.24
2019-02-16T12:36:27.175Z,23.04
2019-02-16T12:37:27.158Z,22.96
2019-02-16T12:38:27.151Z,22.07
2019-02-16T12:39:27.140Z,22.77
2019-02-16T12:40:27.125Z,23.57
2019-02-16T12:41:27.153Z,23.28
2019-02-16T12:42:27.108Z,23.28
2019-02-16T12:43:27.098Z,23.28
2019-02-16T12:44:27.086Z,23.79
2019-02-16T12:45:27.069Z,23.28
2019-02-16T12:46:27.135Z,22.77
2019-02-16T12:47:27.053Z,22.77
2019-02-16T12:48:27.044Z,22.06
2019-02-16T12:49:27.034Z,21.95
2019-02-16T12:50:27.034Z,22.14
2019-02-16T12:51:27.009Z,21.03
2019-02-16T12:52:27.032Z,21.03